Salou, Spain
Current Conditions -  °F | °C
As of 10:00 PM on Sunday 25 Jan 2015 (Local Time) from LERS Reporting Station
Clear Clear  
Wind Chill: 39°   Ceiling: Unl
Heat Index: 46°   Visibility: 6mi
Dew Point: 19°   Wind: 17mph
Humidity: 34%   Direction: 280°W
Pressure: 30.21"   Gusts: NA
Location:  41.08°N, 1.14°E
Report Text: LERS 252100Z 28015KT CAVOK 08/M07 Q1023
Loading
Personal Weather Stations






























Interactive Weather Map New forecast layout! Learn more

10-Day Weather Forecast

Advertisements
Track Severe Weather on mobile